sensor_id;sensor_type;location;lat;lon;timestamp;P1;durP1;ratioP1;P2;durP2;ratioP2
21862;SDS011;11096;51.338;12.524;2023-06-10T00:01:23;6.90;;;3.78;;
21862;SDS011;11096;51.338;12.524;2023-06-10T00:03:50;7.95;;;4.30;;
21862;SDS011;11096;51.338;12.524;2023-06-10T00:06:17;9.98;;;4.00;;
21862;SDS011;11096;51.338;12.524;2023-06-10T00:08:43;8.07;;;3.90;;
21862;SDS011;11096;51.338;12.524;2023-06-10T00:11:08;8.52;;;3.88;;
21862;SDS011;11096;51.338;12.524;2023-06-10T00:13:34;8.68;;;4.00;;
21862;SDS011;11096;51.338;12.524;2023-06-10T00:15:59;6.85;;;4.05;;
21862;SDS011;11096;51.338;12.524;2023-06-10T00:18:24;9.88;;;3.70;;
21862;SDS011;11096;51.338;12.524;2023-06-10T00:20:51;8.18;;;3.80;;
21862;SDS011;11096;51.338;12.524;2023-06-10T00:23:18;10.60;;;3.97;;
21862;SDS011;11096;51.338;12.524;2023-06-10T00:25:43;9.27;;;4.47;;
21862;SDS011;11096;51.338;12.524;2023-06-10T00:28:09;6.85;;;3.85;;
21862;SDS011;11096;51.338;12.524;2023-06-10T00:30:35;10.10;;;4.07;;
21862;SDS011;11096;51.338;12.524;2023-06-10T00:33:00;11.88;;;4.55;;
21862;SDS011;11096;51.338;12.524;2023-06-10T00:35:25;9.27;;;4.63;;
21862;SDS011;11096;51.338;12.524;2023-06-10T00:37:51;7.65;;;4.13;;
21862;SDS011;11096;51.338;12.524;2023-06-10T00:40:16;5.05;;;3.50;;
21862;SDS011;11096;51.338;12.524;2023-06-10T00:42:42;11.70;;;4.03;;
21862;SDS011;11096;51.338;12.524;2023-06-10T00:45:07;7.72;;;3.95;;
21862;SDS011;11096;51.338;12.524;2023-06-10T00:47:33;6.57;;;3.85;;
21862;SDS011;11096;51.338;12.524;2023-06-10T00:50:00;10.48;;;5.07;;
21862;SDS011;11096;51.338;12.524;2023-06-10T00:52:27;6.88;;;3.85;;
21862;SDS011;11096;51.338;12.524;2023-06-10T00:54:54;7.43;;;3.60;;
21862;SDS011;11096;51.338;12.524;2023-06-10T00:57:20;8.57;;;4.30;;
21862;SDS011;11096;51.338;12.524;2023-06-10T00:59:47;10.13;;;4.07;;
21862;SDS011;11096;51.338;12.524;2023-06-10T01:02:14;12.77;;;4.30;;
21862;SDS011;11096;51.338;12.524;2023-06-10T01:04:39;12.65;;;5.00;;
21862;SDS011;11096;51.338;12.524;2023-06-10T01:07:23;7.70;;;4.35;;
21862;SDS011;11096;51.338;12.524;2023-06-10T01:15:40;7.30;;;3.83;;
21862;SDS011;11096;51.338;12.524;2023-06-10T01:18:08;10.73;;;4.57;;
21862;SDS011;11096;51.338;12.524;2023-06-10T01:20:40;9.48;;;4.38;;
21862;SDS011;11096;51.338;12.524;2023-06-10T01:23:07;7.55;;;4.13;;
21862;SDS011;11096;51.338;12.524;2023-06-10T01:25:33;10.30;;;4.93;;
21862;SDS011;11096;51.338;12.524;2023-06-10T01:30:39;13.90;;;4.63;;
21862;SDS011;11096;51.338;12.524;2023-06-10T01:33:09;11.85;;;4.78;;
21862;SDS011;11096;51.338;12.524;2023-06-10T01:35:36;14.70;;;4.78;;
21862;SDS011;11096;51.338;12.524;2023-06-10T01:38:04;9.75;;;4.30;;
21862;SDS011;11096;51.338;12.524;2023-06-10T01:40:30;8.48;;;4.00;;
21862;SDS011;11096;51.338;12.524;2023-06-10T01:42:57;10.68;;;3.95;;
21862;SDS011;11096;51.338;12.524;2023-06-10T01:45:22;12.82;;;4.20;;
21862;SDS011;11096;51.338;12.524;2023-06-10T01:47:48;8.63;;;4.93;;
21862;SDS011;11096;51.338;12.524;2023-06-10T01:50:13;8.20;;;4.25;;
21862;SDS011;11096;51.338;12.524;2023-06-10T01:52:39;9.00;;;4.90;;
21862;SDS011;11096;51.338;12.524;2023-06-10T01:55:05;13.07;;;5.38;;
21862;SDS011;11096;51.338;12.524;2023-06-10T01:57:31;12.23;;;4.88;;
21862;SDS011;11096;51.338;12.524;2023-06-10T01:59:56;8.15;;;4.60;;
21862;SDS011;11096;51.338;12.524;2023-06-10T02:02:21;11.05;;;4.40;;
21862;SDS011;11096;51.338;12.524;2023-06-10T02:04:47;8.82;;;4.57;;
21862;SDS011;11096;51.338;12.524;2023-06-10T02:07:12;9.38;;;4.20;;
21862;SDS011;11096;51.338;12.524;2023-06-10T02:09:38;8.30;;;4.55;;
21862;SDS011;11096;51.338;12.524;2023-06-10T02:12:03;5.82;;;4.22;;
21862;SDS011;11096;51.338;12.524;2023-06-10T02:14:30;7.28;;;4.45;;
21862;SDS011;11096;51.338;12.524;2023-06-10T02:16:57;9.68;;;4.57;;
21862;SDS011;11096;51.338;12.524;2023-06-10T02:19:22;7.30;;;4.82;;
21862;SDS011;11096;51.338;12.524;2023-06-10T02:21:48;9.00;;;4.88;;
21862;SDS011;11096;51.338;12.524;2023-06-10T02:24:14;10.52;;;5.25;;
21862;SDS011;11096;51.338;12.524;2023-06-10T02:26:39;11.88;;;5.43;;
21862;SDS011;11096;51.338;12.524;2023-06-10T02:29:05;11.90;;;5.00;;
21862;SDS011;11096;51.338;12.524;2023-06-10T02:31:31;7.65;;;5.40;;
21862;SDS011;11096;51.338;12.524;2023-06-10T02:33:56;9.25;;;4.82;;
21862;SDS011;11096;51.338;12.524;2023-06-10T02:36:22;9.18;;;5.35;;
21862;SDS011;11096;51.338;12.524;2023-06-10T02:38:49;9.85;;;4.85;;
21862;SDS011;11096;51.338;12.524;2023-06-10T02:41:15;7.45;;;5.45;;
21862;SDS011;11096;51.338;12.524;2023-06-10T02:43:40;10.00;;;5.88;;
21862;SDS011;11096;51.338;12.524;2023-06-10T02:46:06;10.45;;;5.95;;
21862;SDS011;11096;51.338;12.524;2023-06-10T02:48:31;13.82;;;6.03;;
21862;SDS011;11096;51.338;12.524;2023-06-10T02:50:56;12.15;;;5.93;;
21862;SDS011;11096;51.338;12.524;2023-06-10T02:53:22;15.38;;;6.65;;
21862;SDS011;11096;51.338;12.524;2023-06-10T02:55:47;10.93;;;6.80;;
21862;SDS011;11096;51.338;12.524;2023-06-10T02:58:13;11.98;;;7.25;;
21862;SDS011;11096;51.338;12.524;2023-06-10T03:00:38;10.38;;;6.82;;
21862;SDS011;11096;51.338;12.524;2023-06-10T03:03:06;12.45;;;6.55;;
21862;SDS011;11096;51.338;12.524;2023-06-10T03:05:32;12.52;;;6.10;;
21862;SDS011;11096;51.338;12.524;2023-06-10T03:07:57;14.88;;;7.35;;
21862;SDS011;11096;51.338;12.524;2023-06-10T03:10:23;12.68;;;6.45;;
21862;SDS011;11096;51.338;12.524;2023-06-10T03:12:48;15.05;;;7.15;;
21862;SDS011;11096;51.338;12.524;2023-06-10T03:15:14;14.00;;;7.40;;
21862;SDS011;11096;51.338;12.524;2023-06-10T03:17:40;13.13;;;6.95;;
21862;SDS011;11096;51.338;12.524;2023-06-10T03:20:06;12.00;;;6.57;;
21862;SDS011;11096;51.338;12.524;2023-06-10T03:22:35;10.75;;;7.50;;
21862;SDS011;11096;51.338;12.524;2023-06-10T03:25:00;12.05;;;6.70;;
21862;SDS011;11096;51.338;12.524;2023-06-10T03:27:26;13.18;;;6.97;;
21862;SDS011;11096;51.338;12.524;2023-06-10T03:29:51;13.75;;;7.18;;
21862;SDS011;11096;51.338;12.524;2023-06-10T03:32:17;13.60;;;6.88;;
21862;SDS011;11096;51.338;12.524;2023-06-10T03:34:43;11.23;;;7.25;;
21862;SDS011;11096;51.338;12.524;2023-06-10T03:37:10;13.23;;;7.53;;
21862;SDS011;11096;51.338;12.524;2023-06-10T03:39:35;15.05;;;8.10;;
21862;SDS011;11096;51.338;12.524;2023-06-10T03:42:01;14.52;;;6.93;;
21862;SDS011;11096;51.338;12.524;2023-06-10T03:44:26;13.98;;;7.05;;
21862;SDS011;11096;51.338;12.524;2023-06-10T03:46:52;13.20;;;7.50;;
21862;SDS011;11096;51.338;12.524;2023-06-10T03:49:18;11.98;;;6.97;;
21862;SDS011;11096;51.338;12.524;2023-06-10T03:51:43;16.40;;;7.75;;
21862;SDS011;11096;51.338;12.524;2023-06-10T03:54:09;13.82;;;7.47;;
21862;SDS011;11096;51.338;12.524;2023-06-10T03:56:35;11.85;;;7.50;;
21862;SDS011;11096;51.338;12.524;2023-06-10T03:59:00;11.13;;;7.18;;
21862;SDS011;11096;51.338;12.524;2023-06-10T04:01:26;14.88;;;7.78;;
21862;SDS011;11096;51.338;12.524;2023-06-10T04:03:52;15.25;;;7.72;;
21862;SDS011;11096;51.338;12.524;2023-06-10T04:06:19;15.60;;;8.02;;
21862;SDS011;11096;51.338;12.524;2023-06-10T04:08:45;14.90;;;8.15;;
21862;SDS011;11096;51.338;12.524;2023-06-10T04:11:10;17.33;;;8.18;;
21862;SDS011;11096;51.338;12.524;2023-06-10T04:13:36;14.45;;;7.43;;
21862;SDS011;11096;51.338;12.524;2023-06-10T04:16:01;11.82;;;7.05;;
21862;SDS011;11096;51.338;12.524;2023-06-10T04:18:27;15.52;;;8.38;;
21862;SDS011;11096;51.338;12.524;2023-06-10T04:20:53;12.57;;;7.63;;
21862;SDS011;11096;51.338;12.524;2023-06-10T04:23:19;15.48;;;8.02;;
21862;SDS011;11096;51.338;12.524;2023-06-10T04:25:44;14.43;;;7.43;;
21862;SDS011;11096;51.338;12.524;2023-06-10T04:28:09;12.60;;;8.23;;
21862;SDS011;11096;51.338;12.524;2023-06-10T04:30:35;12.10;;;7.65;;
21862;SDS011;11096;51.338;12.524;2023-06-10T04:33:00;14.45;;;8.13;;
21862;SDS011;11096;51.338;12.524;2023-06-10T04:35:26;13.50;;;7.65;;
21862;SDS011;11096;51.338;12.524;2023-06-10T04:37:54;13.18;;;7.60;;
21862;SDS011;11096;51.338;12.524;2023-06-10T04:40:19;13.30;;;7.53;;
21862;SDS011;11096;51.338;12.524;2023-06-10T04:42:45;12.98;;;7.65;;
21862;SDS011;11096;51.338;12.524;2023-06-10T04:45:11;18.42;;;7.93;;
21862;SDS011;11096;51.338;12.524;2023-06-10T04:47:36;15.35;;;7.90;;
21862;SDS011;11096;51.338;12.524;2023-06-10T04:50:02;15.35;;;7.82;;
21862;SDS011;11096;51.338;12.524;2023-06-10T04:52:28;12.52;;;7.60;;
21862;SDS011;11096;51.338;12.524;2023-06-10T04:54:54;13.60;;;7.68;;
21862;SDS011;11096;51.338;12.524;2023-06-10T04:57:19;14.50;;;7.57;;
21862;SDS011;11096;51.338;12.524;2023-06-10T04:59:46;12.38;;;8.20;;
21862;SDS011;11096;51.338;12.524;2023-06-10T05:02:12;16.92;;;8.50;;
21862;SDS011;11096;51.338;12.524;2023-06-10T05:04:37;15.38;;;8.30;;
21862;SDS011;11096;51.338;12.524;2023-06-10T05:07:03;14.25;;;8.75;;
21862;SDS011;11096;51.338;12.524;2023-06-10T05:09:28;11.52;;;8.02;;
21862;SDS011;11096;51.338;12.524;2023-06-10T05:11:54;15.40;;;8.65;;
21862;SDS011;11096;51.338;12.524;2023-06-10T05:14:19;14.65;;;8.10;;
21862;SDS011;11096;51.338;12.524;2023-06-10T05:16:46;13.43;;;8.18;;
21862;SDS011;11096;51.338;12.524;2023-06-10T05:19:12;18.88;;;7.90;;
21862;SDS011;11096;51.338;12.524;2023-06-10T05:21:37;15.75;;;8.40;;
21862;SDS011;11096;51.338;12.524;2023-06-10T05:24:03;16.58;;;8.55;;
21862;SDS011;11096;51.338;12.524;2023-06-10T05:26:28;12.82;;;8.18;;
21862;SDS011;11096;51.338;12.524;2023-06-10T05:28:56;12.73;;;8.50;;
21862;SDS011;11096;51.338;12.524;2023-06-10T05:31:22;13.73;;;7.82;;
21862;SDS011;11096;51.338;12.524;2023-06-10T05:33:47;21.75;;;8.50;;
21862;SDS011;11096;51.338;12.524;2023-06-10T05:36:12;14.45;;;8.10;;
21862;SDS011;11096;51.338;12.524;2023-06-10T05:38:38;15.80;;;8.30;;
21862;SDS011;11096;51.338;12.524;2023-06-10T05:41:03;14.27;;;7.70;;
21862;SDS011;11096;51.338;12.524;2023-06-10T05:43:29;14.88;;;8.48;;
21862;SDS011;11096;51.338;12.524;2023-06-10T05:45:54;14.93;;;7.90;;
21862;SDS011;11096;51.338;12.524;2023-06-10T05:48:19;14.70;;;8.10;;
21862;SDS011;11096;51.338;12.524;2023-06-10T05:50:45;13.38;;;8.02;;
21862;SDS011;11096;51.338;12.524;2023-06-10T05:53:13;10.60;;;7.82;;
21862;SDS011;11096;51.338;12.524;2023-06-10T05:55:43;13.80;;;8.18;;
21862;SDS011;11096;51.338;12.524;2023-06-10T05:58:09;14.00;;;7.32;;
21862;SDS011;11096;51.338;12.524;2023-06-10T06:00:37;14.32;;;7.82;;
21862;SDS011;11096;51.338;12.524;2023-06-10T06:03:02;12.98;;;7.85;;
21862;SDS011;11096;51.338;12.524;2023-06-10T06:05:28;17.42;;;7.53;;
21862;SDS011;11096;51.338;12.524;2023-06-10T06:07:59;11.73;;;7.80;;
21862;SDS011;11096;51.338;12.524;2023-06-10T06:10:25;12.82;;;7.45;;
21862;SDS011;11096;51.338;12.524;2023-06-10T06:12:51;12.75;;;7.75;;
21862;SDS011;11096;51.338;12.524;2023-06-10T06:15:16;14.38;;;8.20;;
21862;SDS011;11096;51.338;12.524;2023-06-10T06:17:41;15.13;;;7.72;;
21862;SDS011;11096;51.338;12.524;2023-06-10T06:20:07;14.80;;;8.13;;
21862;SDS011;11096;51.338;12.524;2023-06-10T06:22:33;13.73;;;7.75;;
21862;SDS011;11096;51.338;12.524;2023-06-10T06:24:58;11.70;;;7.38;;
21862;SDS011;11096;51.338;12.524;2023-06-10T06:27:23;15.80;;;8.05;;
21862;SDS011;11096;51.338;12.524;2023-06-10T06:29:49;17.67;;;8.82;;
21862;SDS011;11096;51.338;12.524;2023-06-10T06:32:15;19.83;;;8.23;;
21862;SDS011;11096;51.338;12.524;2023-06-10T06:34:41;13.80;;;7.85;;
21862;SDS011;11096;51.338;12.524;2023-06-10T06:37:06;12.52;;;7.50;;
21862;SDS011;11096;51.338;12.524;2023-06-10T06:39:31;13.60;;;7.97;;
21862;SDS011;11096;51.338;12.524;2023-06-10T06:41:57;11.30;;;7.60;;
21862;SDS011;11096;51.338;12.524;2023-06-10T06:44:22;14.45;;;8.63;;
21862;SDS011;11096;51.338;12.524;2023-06-10T06:46:48;13.02;;;8.75;;
21862;SDS011;11096;51.338;12.524;2023-06-10T06:49:13;13.05;;;8.52;;
21862;SDS011;11096;51.338;12.524;2023-06-10T06:51:39;12.85;;;7.35;;
21862;SDS011;11096;51.338;12.524;2023-06-10T06:54:04;12.13;;;7.75;;
21862;SDS011;11096;51.338;12.524;2023-06-10T06:56:30;13.23;;;7.90;;
21862;SDS011;11096;51.338;12.524;2023-06-10T06:58:56;13.23;;;9.30;;
21862;SDS011;11096;51.338;12.524;2023-06-10T07:01:21;13.25;;;8.50;;
21862;SDS011;11096;51.338;12.524;2023-06-10T07:03:47;14.90;;;7.47;;
21862;SDS011;11096;51.338;12.524;2023-06-10T07:06:12;10.35;;;7.18;;
21862;SDS011;11096;51.338;12.524;2023-06-10T07:08:38;20.63;;;8.30;;
21862;SDS011;11096;51.338;12.524;2023-06-10T07:11:03;15.15;;;8.52;;
21862;SDS011;11096;51.338;12.524;2023-06-10T07:13:29;10.95;;;7.95;;
21862;SDS011;11096;51.338;12.524;2023-06-10T07:15:54;11.50;;;7.60;;
21862;SDS011;11096;51.338;12.524;2023-06-10T07:18:20;12.98;;;7.97;;
21862;SDS011;11096;51.338;12.524;2023-06-10T07:20:45;14.15;;;8.07;;
21862;SDS011;11096;51.338;12.524;2023-06-10T07:23:10;12.98;;;8.38;;
21862;SDS011;11096;51.338;12.524;2023-06-10T07:25:36;12.48;;;7.88;;
21862;SDS011;11096;51.338;12.524;2023-06-10T07:28:01;15.05;;;7.97;;
21862;SDS011;11096;51.338;12.524;2023-06-10T07:30:27;12.20;;;8.05;;
21862;SDS011;11096;51.338;12.524;2023-06-10T07:32:53;15.70;;;8.43;;
21862;SDS011;11096;51.338;12.524;2023-06-10T07:35:18;15.38;;;7.88;;
21862;SDS011;11096;51.338;12.524;2023-06-10T07:37:44;10.95;;;7.40;;
21862;SDS011;11096;51.338;12.524;2023-06-10T07:40:10;15.35;;;8.27;;
21862;SDS011;11096;51.338;12.524;2023-06-10T07:42:36;13.73;;;8.50;;
21862;SDS011;11096;51.338;12.524;2023-06-10T07:45:02;12.80;;;7.55;;
21862;SDS011;11096;51.338;12.524;2023-06-10T07:47:29;11.43;;;7.63;;
21862;SDS011;11096;51.338;12.524;2023-06-10T07:49:55;13.85;;;8.18;;
21862;SDS011;11096;51.338;12.524;2023-06-10T07:52:20;12.07;;;7.95;;
21862;SDS011;11096;51.338;12.524;2023-06-10T07:54:46;16.63;;;8.52;;
21862;SDS011;11096;51.338;12.524;2023-06-10T07:57:11;10.75;;;8.43;;
21862;SDS011;11096;51.338;12.524;2023-06-10T07:59:37;12.02;;;7.80;;
21862;SDS011;11096;51.338;12.524;2023-06-10T08:02:03;12.25;;;7.65;;
21862;SDS011;11096;51.338;12.524;2023-06-10T08:04:29;14.10;;;7.57;;
21862;SDS011;11096;51.338;12.524;2023-06-10T08:06:55;12.45;;;7.82;;
21862;SDS011;11096;51.338;12.524;2023-06-10T08:09:21;12.48;;;7.80;;
21862;SDS011;11096;51.338;12.524;2023-06-10T08:11:48;11.77;;;7.20;;
21862;SDS011;11096;51.338;12.524;2023-06-10T08:14:13;9.63;;;6.85;;
21862;SDS011;11096;51.338;12.524;2023-06-10T08:16:39;15.40;;;7.40;;
21862;SDS011;11096;51.338;12.524;2023-06-10T08:19:04;11.20;;;7.47;;
21862;SDS011;11096;51.338;12.524;2023-06-10T08:21:30;11.65;;;7.53;;
21862;SDS011;11096;51.338;12.524;2023-06-10T08:23:55;16.17;;;7.60;;
21862;SDS011;11096;51.338;12.524;2023-06-10T08:26:20;12.75;;;7.70;;
21862;SDS011;11096;51.338;12.524;2023-06-10T08:28:46;13.10;;;7.57;;
21862;SDS011;11096;51.338;12.524;2023-06-10T08:31:11;15.40;;;7.57;;
21862;SDS011;11096;51.338;12.524;2023-06-10T08:33:37;11.18;;;7.00;;
21862;SDS011;11096;51.338;12.524;2023-06-10T08:36:02;8.07;;;6.35;;
21862;SDS011;11096;51.338;12.524;2023-06-10T08:38:27;11.18;;;6.75;;
21862;SDS011;11096;51.338;12.524;2023-06-10T08:40:55;8.13;;;5.70;;
21862;SDS011;11096;51.338;12.524;2023-06-10T08:43:34;11.93;;;6.40;;
21862;SDS011;11096;51.338;12.524;2023-06-10T08:46:04;8.27;;;6.05;;
21862;SDS011;11096;51.338;12.524;2023-06-10T08:48:34;13.48;;;6.22;;
21862;SDS011;11096;51.338;12.524;2023-06-10T08:51:03;7.95;;;5.30;;
21862;SDS011;11096;51.338;12.524;2023-06-10T08:53:30;6.32;;;5.55;;
21862;SDS011;11096;51.338;12.524;2023-06-10T08:55:58;9.80;;;6.00;;
21862;SDS011;11096;51.338;12.524;2023-06-10T08:58:27;9.88;;;5.28;;
21862;SDS011;11096;51.338;12.524;2023-06-10T09:00:53;11.15;;;5.90;;
21862;SDS011;11096;51.338;12.524;2023-06-10T09:03:19;9.32;;;5.97;;
21862;SDS011;11096;51.338;12.524;2023-06-10T09:05:46;10.63;;;5.70;;
21862;SDS011;11096;51.338;12.524;2023-06-10T09:08:13;7.50;;;5.55;;
21862;SDS011;11096;51.338;12.524;2023-06-10T09:10:40;8.27;;;5.38;;
21862;SDS011;11096;51.338;12.524;2023-06-10T09:13:06;10.50;;;5.38;;
21862;SDS011;11096;51.338;12.524;2023-06-10T09:15:31;8.50;;;5.35;;
21862;SDS011;11096;51.338;12.524;2023-06-10T09:17:57;8.88;;;5.22;;
21862;SDS011;11096;51.338;12.524;2023-06-10T09:20:23;9.85;;;5.18;;
21862;SDS011;11096;51.338;12.524;2023-06-10T09:22:48;10.48;;;5.15;;
21862;SDS011;11096;51.338;12.524;2023-06-10T09:25:14;7.97;;;5.50;;
21862;SDS011;11096;51.338;12.524;2023-06-10T09:27:47;8.52;;;5.45;;
21862;SDS011;11096;51.338;12.524;2023-06-10T09:30:34;7.25;;;5.60;;
21862;SDS011;11096;51.338;12.524;2023-06-10T09:33:00;7.40;;;5.45;;
21862;SDS011;11096;51.338;12.524;2023-06-10T09:35:28;7.10;;;5.32;;
21862;SDS011;11096;51.338;12.524;2023-06-10T09:37:55;7.93;;;5.20;;
21862;SDS011;11096;51.338;12.524;2023-06-10T09:40:22;5.90;;;5.30;;
21862;SDS011;11096;51.338;12.524;2023-06-10T09:42:55;9.18;;;5.00;;
21862;SDS011;11096;51.338;12.524;2023-06-10T09:45:22;11.32;;;6.15;;
21862;SDS011;11096;51.338;12.524;2023-06-10T09:47:52;6.90;;;5.38;;
21862;SDS011;11096;51.338;12.524;2023-06-10T09:50:18;7.75;;;5.28;;
21862;SDS011;11096;51.338;12.524;2023-06-10T09:52:45;8.05;;;5.90;;
21862;SDS011;11096;51.338;12.524;2023-06-10T09:55:12;7.95;;;5.40;;
21862;SDS011;11096;51.338;12.524;2023-06-10T09:57:37;7.38;;;5.57;;
21862;SDS011;11096;51.338;12.524;2023-06-10T10:00:08;7.85;;;5.78;;
21862;SDS011;11096;51.338;12.524;2023-06-10T10:02:44;8.27;;;5.80;;
21862;SDS011;11096;51.338;12.524;2023-06-10T10:05:12;10.73;;;6.55;;
21862;SDS011;11096;51.338;12.524;2023-06-10T10:07:39;12.07;;;6.25;;
21862;SDS011;11096;51.338;12.524;2023-06-10T10:10:04;9.23;;;5.90;;
21862;SDS011;11096;51.338;12.524;2023-06-10T10:12:32;9.52;;;6.13;;
21862;SDS011;11096;51.338;12.524;2023-06-10T10:14:58;8.77;;;6.32;;
21862;SDS011;11096;51.338;12.524;2023-06-10T10:17:24;7.63;;;6.72;;
21862;SDS011;11096;51.338;12.524;2023-06-10T10:19:53;9.00;;;6.40;;
21862;SDS011;11096;51.338;12.524;2023-06-10T10:22:31;8.05;;;5.75;;
21862;SDS011;11096;51.338;12.524;2023-06-10T10:25:02;9.13;;;6.35;;
21862;SDS011;11096;51.338;12.524;2023-06-10T10:27:36;7.75;;;6.15;;
21862;SDS011;11096;51.338;12.524;2023-06-10T10:30:14;7.47;;;5.95;;
21862;SDS011;11096;51.338;12.524;2023-06-10T10:32:58;7.63;;;6.20;;
21862;SDS011;11096;51.338;12.524;2023-06-10T10:35:30;10.85;;;5.82;;
21862;SDS011;11096;51.338;12.524;2023-06-10T10:37:58;7.45;;;5.85;;
21862;SDS011;11096;51.338;12.524;2023-06-10T10:40:24;8.30;;;6.18;;
21862;SDS011;11096;51.338;12.524;2023-06-10T10:42:51;7.72;;;5.60;;
21862;SDS011;11096;51.338;12.524;2023-06-10T10:45:18;10.77;;;5.35;;
21862;SDS011;11096;51.338;12.524;2023-06-10T10:47:45;5.32;;;4.82;;
21862;SDS011;11096;51.338;12.524;2023-06-10T10:50:17;5.70;;;5.07;;
21862;SDS011;11096;51.338;12.524;2023-06-10T10:52:53;9.00;;;5.18;;
21862;SDS011;11096;51.338;12.524;2023-06-10T10:55:26;6.07;;;4.85;;
21862;SDS011;11096;51.338;12.524;2023-06-10T11:00:31;9.15;;;5.47;;
21862;SDS011;11096;51.338;12.524;2023-06-10T11:05:43;6.28;;;5.47;;
21862;SDS011;11096;51.338;12.524;2023-06-10T11:08:13;6.47;;;4.75;;
21862;SDS011;11096;51.338;12.524;2023-06-10T11:10:41;9.52;;;5.30;;
21862;SDS011;11096;51.338;12.524;2023-06-10T11:13:18;6.78;;;5.28;;
21862;SDS011;11096;51.338;12.524;2023-06-10T11:15:48;9.00;;;5.53;;
21862;SDS011;11096;51.338;12.524;2023-06-10T11:18:28;9.73;;;5.10;;
21862;SDS011;11096;51.338;12.524;2023-06-10T11:21:03;6.57;;;5.75;;
21862;SDS011;11096;51.338;12.524;2023-06-10T11:28:40;5.35;;;4.70;;
21862;SDS011;11096;51.338;12.524;2023-06-10T11:31:08;8.77;;;5.45;;
21862;SDS011;11096;51.338;12.524;2023-06-10T11:33:43;7.57;;;4.32;;
21862;SDS011;11096;51.338;12.524;2023-06-10T11:36:09;7.00;;;4.97;;
21862;SDS011;11096;51.338;12.524;2023-06-10T11:38:34;7.70;;;4.85;;
21862;SDS011;11096;51.338;12.524;2023-06-10T11:41:01;7.68;;;5.25;;
21862;SDS011;11096;51.338;12.524;2023-06-10T11:43:27;10.25;;;4.97;;
21862;SDS011;11096;51.338;12.524;2023-06-10T11:45:56;8.10;;;5.38;;
21862;SDS011;11096;51.338;12.524;2023-06-10T11:48:21;7.68;;;5.10;;
21862;SDS011;11096;51.338;12.524;2023-06-10T11:50:47;6.25;;;5.18;;
21862;SDS011;11096;51.338;12.524;2023-06-10T11:53:12;7.18;;;4.82;;
21862;SDS011;11096;51.338;12.524;2023-06-10T11:55:45;6.95;;;5.28;;
21862;SDS011;11096;51.338;12.524;2023-06-10T11:58:18;7.82;;;4.82;;
21862;SDS011;11096;51.338;12.524;2023-06-10T12:00:45;8.52;;;5.03;;
21862;SDS011;11096;51.338;12.524;2023-06-10T12:03:16;8.02;;;5.32;;
21862;SDS011;11096;51.338;12.524;2023-06-10T12:08:23;7.72;;;4.80;;
21862;SDS011;11096;51.338;12.524;2023-06-10T12:10:49;6.03;;;4.53;;
21862;SDS011;11096;51.338;12.524;2023-06-10T12:13:16;7.35;;;4.97;;
21862;SDS011;11096;51.338;12.524;2023-06-10T12:15:44;7.20;;;4.50;;
21862;SDS011;11096;51.338;12.524;2023-06-10T12:18:44;6.65;;;4.97;;
21862;SDS011;11096;51.338;12.524;2023-06-10T12:21:02;6.93;;;4.55;;
21862;SDS011;11096;51.338;12.524;2023-06-10T12:23:28;5.15;;;4.60;;
21862;SDS011;11096;51.338;12.524;2023-06-10T12:25:54;8.00;;;4.80;;
21862;SDS011;11096;51.338;12.524;2023-06-10T12:28:21;5.38;;;4.63;;
21862;SDS011;11096;51.338;12.524;2023-06-10T12:30:50;7.18;;;4.72;;
21862;SDS011;11096;51.338;12.524;2023-06-10T12:33:20;6.88;;;4.55;;
21862;SDS011;11096;51.338;12.524;2023-06-10T12:35:50;7.22;;;4.18;;
21862;SDS011;11096;51.338;12.524;2023-06-10T12:38:22;5.97;;;4.38;;
21862;SDS011;11096;51.338;12.524;2023-06-10T12:40:54;11.85;;;5.63;;
21862;SDS011;11096;51.338;12.524;2023-06-10T12:43:26;9.93;;;4.40;;
21862;SDS011;11096;51.338;12.524;2023-06-10T12:45:52;7.28;;;4.70;;
21862;SDS011;11096;51.338;12.524;2023-06-10T12:48:21;6.53;;;4.88;;
21862;SDS011;11096;51.338;12.524;2023-06-10T12:50:54;11.15;;;5.10;;
21862;SDS011;11096;51.338;12.524;2023-06-10T12:53:21;9.05;;;4.78;;
21862;SDS011;11096;51.338;12.524;2023-06-10T12:55:54;7.88;;;4.90;;
21862;SDS011;11096;51.338;12.524;2023-06-10T12:58:22;8.82;;;5.18;;
21862;SDS011;11096;51.338;12.524;2023-06-10T13:00:48;7.32;;;5.15;;
21862;SDS011;11096;51.338;12.524;2023-06-10T13:03:14;7.95;;;5.28;;
21862;SDS011;11096;51.338;12.524;2023-06-10T13:05:40;7.20;;;4.93;;
21862;SDS011;11096;51.338;12.524;2023-06-10T13:08:06;8.90;;;5.00;;
21862;SDS011;11096;51.338;12.524;2023-06-10T13:10:32;6.80;;;5.00;;
21862;SDS011;11096;51.338;12.524;2023-06-10T13:12:59;4.85;;;4.32;;
21862;SDS011;11096;51.338;12.524;2023-06-10T13:15:25;6.97;;;4.20;;
21862;SDS011;11096;51.338;12.524;2023-06-10T13:17:51;7.55;;;4.25;;
21862;SDS011;11096;51.338;12.524;2023-06-10T13:20:17;6.55;;;4.60;;
21862;SDS011;11096;51.338;12.524;2023-06-10T13:22:43;5.13;;;4.45;;
21862;SDS011;11096;51.338;12.524;2023-06-10T13:25:09;6.25;;;4.28;;
21862;SDS011;11096;51.338;12.524;2023-06-10T13:27:35;5.63;;;4.40;;
21862;SDS011;11096;51.338;12.524;2023-06-10T13:30:03;6.57;;;4.10;;
21862;SDS011;11096;51.338;12.524;2023-06-10T13:32:32;6.47;;;4.28;;
21862;SDS011;11096;51.338;12.524;2023-06-10T13:34:58;5.38;;;4.20;;
21862;SDS011;11096;51.338;12.524;2023-06-10T13:37:23;4.35;;;3.95;;
21862;SDS011;11096;51.338;12.524;2023-06-10T13:39:49;3.85;;;3.22;;
21862;SDS011;11096;51.338;12.524;2023-06-10T13:42:17;8.02;;;3.60;;
21862;SDS011;11096;51.338;12.524;2023-06-10T13:44:42;3.63;;;2.80;;
21862;SDS011;11096;51.338;12.524;2023-06-10T13:47:08;5.50;;;3.15;;
21862;SDS011;11096;51.338;12.524;2023-06-10T13:49:33;4.93;;;2.88;;
21862;SDS011;11096;51.338;12.524;2023-06-10T13:51:59;4.97;;;3.10;;
21862;SDS011;11096;51.338;12.524;2023-06-10T13:54:24;3.17;;;2.60;;
21862;SDS011;11096;51.338;12.524;2023-06-10T13:56:50;2.97;;;2.42;;
21862;SDS011;11096;51.338;12.524;2023-06-10T13:59:15;3.22;;;2.80;;
21862;SDS011;11096;51.338;12.524;2023-06-10T14:01:41;3.40;;;2.80;;
21862;SDS011;11096;51.338;12.524;2023-06-10T14:04:07;3.95;;;3.00;;
21862;SDS011;11096;51.338;12.524;2023-06-10T14:06:33;3.25;;;2.40;;
21862;SDS011;11096;51.338;12.524;2023-06-10T14:08:59;4.18;;;2.75;;
21862;SDS011;11096;51.338;12.524;2023-06-10T14:11:25;4.18;;;2.63;;
21862;SDS011;11096;51.338;12.524;2023-06-10T14:13:50;3.05;;;2.58;;
21862;SDS011;11096;51.338;12.524;2023-06-10T14:16:16;4.65;;;3.00;;
21862;SDS011;11096;51.338;12.524;2023-06-10T14:18:41;3.67;;;2.75;;
21862;SDS011;11096;51.338;12.524;2023-06-10T14:21:06;4.18;;;2.63;;
21862;SDS011;11096;51.338;12.524;2023-06-10T14:23:32;3.72;;;2.85;;
21862;SDS011;11096;51.338;12.524;2023-06-10T14:25:57;2.40;;;2.13;;
21862;SDS011;11096;51.338;12.524;2023-06-10T14:28:23;2.92;;;2.58;;
21862;SDS011;11096;51.338;12.524;2023-06-10T14:30:51;3.78;;;2.63;;
21862;SDS011;11096;51.338;12.524;2023-06-10T14:33:16;2.75;;;2.25;;
21862;SDS011;11096;51.338;12.524;2023-06-10T14:35:42;4.68;;;2.95;;
21862;SDS011;11096;51.338;12.524;2023-06-10T14:38:08;3.42;;;2.42;;
21862;SDS011;11096;51.338;12.524;2023-06-10T14:40:33;3.38;;;3.00;;
21862;SDS011;11096;51.338;12.524;2023-06-10T14:42:59;3.70;;;2.78;;
21862;SDS011;11096;51.338;12.524;2023-06-10T14:45:26;3.45;;;2.80;;
21862;SDS011;11096;51.338;12.524;2023-06-10T14:47:51;3.40;;;2.78;;